createdAt,value
2022-11-29T00:01:39.870Z,98826.34
2022-11-29T00:04:07.502Z,98821.59
2022-11-29T00:06:36.000Z,98795.94
2022-11-29T00:09:08.364Z,98825.91
2022-11-29T00:11:57.026Z,98816.47
2022-11-29T00:14:27.519Z,98846.34
2022-11-29T00:16:59.461Z,98834.16
2022-11-29T00:19:26.516Z,98826.72
2022-11-29T00:21:53.858Z,98872.50
2022-11-29T00:24:21.209Z,98835.44
2022-11-29T00:26:48.597Z,98859.22
2022-11-29T00:29:15.999Z,98836.16
2022-11-29T00:31:44.012Z,98838.59
2022-11-29T00:34:12.457Z,98814.88
2022-11-29T00:36:40.859Z,98851.97
2022-11-29T00:39:11.619Z,98799.22
2022-11-29T00:41:39.200Z,98782.44
2022-11-29T00:44:06.371Z,98790.38
2022-11-29T00:46:33.921Z,98791.56
2022-11-29T00:49:01.172Z,98810.81
2022-11-29T00:51:28.904Z,98803.75
2022-11-29T00:53:55.879Z,98841.34
2022-11-29T00:56:23.019Z,98801.44
2022-11-29T00:58:50.926Z,98833.41
2022-11-29T01:01:18.236Z,98853.72
2022-11-29T01:03:45.805Z,98812.28
2022-11-29T01:06:15.621Z,98848.97
2022-11-29T01:08:43.346Z,98817.66
2022-11-29T01:11:24.742Z,98843.88
2022-11-29T01:13:57.705Z,98887.03
2022-11-29T01:16:25.864Z,98825.53
2022-11-29T01:18:52.941Z,98876.88
2022-11-29T01:21:22.592Z,98838.25
2022-11-29T01:23:52.689Z,98833.16
2022-11-29T01:26:26.342Z,98832.22
2022-11-29T01:28:55.388Z,98810.50
2022-11-29T01:31:32.869Z,98802.53
2022-11-29T01:34:02.938Z,98805.72
2022-11-29T01:36:30.811Z,98835.09
2022-11-29T01:39:01.624Z,98853.22
2022-11-29T01:41:32.795Z,98870.59
2022-11-29T01:44:04.748Z,98818.97
2022-11-29T01:46:38.860Z,98836.75
2022-11-29T01:49:20.202Z,98831.19
2022-11-29T01:52:03.790Z,98843.00
2022-11-29T01:54:35.090Z,98826.31
2022-11-29T01:57:07.466Z,98850.13
2022-11-29T01:59:37.228Z,98828.84
2022-11-29T02:02:14.619Z,98817.03
2022-11-29T02:04:45.132Z,98818.50
2022-11-29T02:07:12.808Z,98801.19
2022-11-29T02:09:40.112Z,98823.34
2022-11-29T02:12:51.793Z,98796.44
2022-11-29T02:16:03.800Z,98796.13
2022-11-29T02:19:00.276Z,98817.66
2022-11-29T02:21:54.616Z,98846.16
2022-11-29T02:24:54.796Z,98856.19
2022-11-29T02:28:04.487Z,98826.88
2022-11-29T02:30:52.978Z,98804.38
2022-11-29T02:33:47.962Z,98817.75
2022-11-29T02:36:25.271Z,98802.09
2022-11-29T02:39:32.417Z,98820.19
2022-11-29T02:41:59.416Z,98803.56
2022-11-29T02:44:53.900Z,98792.19
2022-11-29T02:47:25.833Z,98779.69
2022-11-29T02:50:55.382Z,98805.00
2022-11-29T02:53:37.001Z,98824.00
2022-11-29T02:56:28.853Z,98798.84
2022-11-29T02:59:39.253Z,98796.88
2022-11-29T03:02:35.152Z,98820.94
2022-11-29T03:05:23.835Z,98836.31
2022-11-29T03:08:13.265Z,98826.63
2022-11-29T03:11:07.005Z,98822.94
2022-11-29T03:14:07.720Z,98839.25
2022-11-29T03:16:46.136Z,98799.72
2022-11-29T03:19:29.378Z,98788.63
2022-11-29T03:22:20.780Z,98798.13
2022-11-29T03:25:02.908Z,98791.31
2022-11-29T03:27:53.045Z,98776.53
2022-11-29T03:30:21.868Z,98868.88
2022-11-29T03:33:16.834Z,98858.31
2022-11-29T03:36:12.918Z,98842.06
2022-11-29T03:38:46.017Z,98823.16
2022-11-29T03:42:14.460Z,98818.31
2022-11-29T03:44:52.577Z,98789.72
2022-11-29T03:47:35.019Z,98859.81
2022-11-29T03:50:11.329Z,98820.47
2022-11-29T03:53:01.680Z,98868.06
2022-11-29T03:56:04.082Z,98885.16
2022-11-29T03:58:50.347Z,98873.72
2022-11-29T04:02:07.018Z,98822.19
2022-11-29T04:05:28.247Z,98855.16
2022-11-29T04:08:38.736Z,98826.25
2022-11-29T04:11:54.615Z,98831.41
2022-11-29T04:14:51.483Z,98831.09
2022-11-29T04:17:56.512Z,98882.22
2022-11-29T04:21:15.555Z,98800.00
2022-11-29T04:24:06.839Z,98820.22
2022-11-29T04:27:17.762Z,98785.25
2022-11-29T04:29:50.505Z,98793.16
2022-11-29T04:32:34.666Z,98824.75
2022-11-29T04:35:38.493Z,98857.69
2022-11-29T04:38:40.906Z,98806.28
2022-11-29T04:41:34.923Z,98822.97
2022-11-29T04:44:31.859Z,98823.66
2022-11-29T04:47:39.516Z,98868.81
2022-11-29T04:50:27.569Z,98858.22
2022-11-29T04:53:33.867Z,98843.31
2022-11-29T04:56:45.126Z,98810.69
2022-11-29T04:59:27.300Z,98816.03
2022-11-29T05:02:22.341Z,98812.69
2022-11-29T05:05:32.205Z,98869.06
2022-11-29T05:08:33.005Z,98850.91
2022-11-29T05:11:35.107Z,98840.59
2022-11-29T05:14:17.760Z,98773.34
2022-11-29T05:17:40.255Z,98853.44
2022-11-29T05:20:19.150Z,98832.97
2022-11-29T05:23:22.848Z,98867.72
2022-11-29T05:26:22.720Z,98890.03
2022-11-29T05:28:57.618Z,98900.59
2022-11-29T05:31:49.376Z,98920.84
2022-11-29T05:34:35.173Z,98850.19
2022-11-29T05:37:47.208Z,98864.69
2022-11-29T05:40:43.615Z,98839.50
2022-11-29T05:43:51.281Z,98835.28
2022-11-29T05:46:34.683Z,98847.41
2022-11-29T05:49:21.865Z,98804.44
2022-11-29T05:52:25.050Z,98829.56
2022-11-29T05:55:16.574Z,98881.00
2022-11-29T05:58:10.568Z,98843.06
2022-11-29T06:00:51.885Z,98831.19
2022-11-29T06:03:43.709Z,98892.09
2022-11-29T06:06:47.090Z,98875.78
2022-11-29T06:10:00.507Z,98775.06
2022-11-29T06:12:31.892Z,98807.09
2022-11-29T06:15:56.980Z,98870.09
2022-11-29T06:19:25.878Z,98900.13
2022-11-29T06:22:05.785Z,98866.78
2022-11-29T06:24:53.404Z,98841.69
2022-11-29T06:27:39.126Z,98867.19
2022-11-29T06:30:13.949Z,98894.91
2022-11-29T06:33:21.626Z,98876.28
2022-11-29T06:36:19.629Z,98857.25
2022-11-29T06:38:47.320Z,98795.63
2022-11-29T06:41:21.995Z,98844.38
2022-11-29T06:43:50.271Z,98853.16
2022-11-29T06:46:31.249Z,98858.63
2022-11-29T06:49:28.196Z,98878.50
2022-11-29T06:52:29.027Z,98883.28
2022-11-29T06:55:17.135Z,98912.91
2022-11-29T06:58:43.131Z,98938.19
2022-11-29T07:01:20.501Z,98875.34
2022-11-29T07:04:29.566Z,98837.16
2022-11-29T07:06:57.224Z,98908.03
2022-11-29T07:09:34.589Z,98908.16
2022-11-29T07:12:02.130Z,98882.78
2022-11-29T07:14:29.448Z,98924.66
2022-11-29T07:17:15.408Z,98937.25
2022-11-29T07:19:54.127Z,98863.19
2022-11-29T07:22:55.143Z,98888.91
2022-11-29T07:25:51.236Z,98938.50
2022-11-29T07:28:53.779Z,98932.13
2022-11-29T07:31:42.334Z,98866.84
2022-11-29T07:34:40.184Z,98889.63
2022-11-29T07:37:48.218Z,98922.28
2022-11-29T07:40:25.481Z,98897.31
2022-11-29T07:43:22.741Z,98962.69
2022-11-29T07:45:51.354Z,98911.31
2022-11-29T07:48:19.304Z,98958.50
2022-11-29T07:50:46.840Z,98968.31
2022-11-29T07:53:19.147Z,98884.28
2022-11-29T07:55:47.389Z,98932.41
2022-11-29T07:58:16.775Z,98940.19
2022-11-29T08:00:44.792Z,98991.97
2022-11-29T08:03:12.174Z,98932.25
2022-11-29T08:05:39.962Z,98950.22
2022-11-29T08:08:07.488Z,98964.22
2022-11-29T08:10:35.695Z,98994.28
2022-11-29T08:13:02.729Z,98957.03
2022-11-29T08:15:30.003Z,98956.41
2022-11-29T08:18:19.232Z,98949.28
2022-11-29T08:20:46.528Z,98986.16
2022-11-29T08:23:15.604Z,98998.19
2022-11-29T08:25:42.921Z,98989.72
2022-11-29T08:28:09.968Z,99037.28
2022-11-29T08:30:37.879Z,98990.94
2022-11-29T08:33:05.391Z,99029.66
2022-11-29T08:35:34.494Z,99047.00
2022-11-29T08:38:01.514Z,99001.91
2022-11-29T08:40:28.589Z,99057.41
2022-11-29T08:42:58.517Z,99057.00
2022-11-29T08:45:25.629Z,99044.41
2022-11-29T08:47:52.719Z,99043.28
2022-11-29T08:50:19.836Z,99030.59
2022-11-29T08:53:07.851Z,99066.53
2022-11-29T08:55:42.673Z,99011.06
2022-11-29T08:58:14.067Z,99023.75
2022-11-29T09:00:46.011Z,99072.88
2022-11-29T09:03:32.177Z,99072.09
2022-11-29T09:06:07.674Z,99080.22
2022-11-29T09:08:39.368Z,99070.63
2022-11-29T09:11:22.125Z,99112.63
2022-11-29T09:13:53.921Z,99092.13
2022-11-29T09:16:25.435Z,99119.91
2022-11-29T09:18:54.728Z,99098.94
2022-11-29T09:21:24.551Z,99109.25
2022-11-29T09:23:58.806Z,99121.09
2022-11-29T09:26:35.617Z,99078.25
2022-11-29T09:29:06.522Z,99073.06
2022-11-29T09:31:34.958Z,99040.44
2022-11-29T09:34:02.049Z,99053.50
2022-11-29T09:36:30.271Z,99105.28
2022-11-29T09:38:58.963Z,99102.28
2022-11-29T09:41:58.531Z,99127.41
2022-11-29T09:45:01.825Z,99084.91
2022-11-29T09:48:15.201Z,99101.56
2022-11-29T09:50:58.235Z,99066.06
2022-11-29T09:54:22.852Z,99098.03
2022-11-29T09:56:55.420Z,99103.41
2022-11-29T09:59:37.307Z,99116.56
2022-11-29T10:02:45.262Z,99123.72
2022-11-29T10:05:21.201Z,99091.72
2022-11-29T10:07:57.460Z,99133.09
2022-11-29T10:10:41.664Z,99121.41
2022-11-29T10:13:29.788Z,99097.63
2022-11-29T10:16:06.241Z,99094.56
2022-11-29T10:18:50.504Z,99146.81
2022-11-29T10:21:35.401Z,99107.09
2022-11-29T10:24:14.640Z,99103.50
2022-11-29T10:26:43.461Z,99091.09
2022-11-29T10:29:16.181Z,99050.91
2022-11-29T10:31:49.459Z,99121.41
2022-11-29T10:34:21.055Z,99121.53
2022-11-29T10:37:02.355Z,99083.28
2022-11-29T10:39:53.879Z,99105.47
2022-11-29T10:42:43.911Z,99094.00
2022-11-29T10:45:27.297Z,99126.53
2022-11-29T10:48:02.173Z,99111.19
2022-11-29T10:50:52.800Z,99102.03
2022-11-29T10:53:32.602Z,99111.63
2022-11-29T10:56:01.910Z,99141.44
2022-11-29T10:58:31.071Z,99046.34
2022-11-29T11:01:06.557Z,99061.66
2022-11-29T11:03:55.751Z,99124.56
2022-11-29T11:06:46.427Z,99097.47
2022-11-29T11:09:48.769Z,99137.31
2022-11-29T11:12:15.941Z,99111.97
2022-11-29T11:14:45.014Z,99110.09
2022-11-29T11:17:26.611Z,99024.91
2022-11-29T11:20:06.135Z,99115.16
2022-11-29T11:22:34.187Z,99031.97
2022-11-29T11:25:25.226Z,99060.72
2022-11-29T11:27:52.426Z,99079.72
2022-11-29T11:30:27.370Z,99100.91
2022-11-29T11:33:30.093Z,99137.91
2022-11-29T11:36:21.121Z,99084.59
2022-11-29T11:38:59.522Z,99083.84
2022-11-29T11:41:53.991Z,99097.44
2022-11-29T11:47:22.477Z,99063.56
2022-11-29T11:50:04.397Z,99092.78
2022-11-29T11:52:53.275Z,99088.75
2022-11-29T11:55:33.311Z,99004.31
2022-11-29T11:58:11.846Z,99093.59
2022-11-29T12:01:05.872Z,99096.69
2022-11-29T12:03:45.562Z,99085.47
2022-11-29T12:06:48.027Z,99021.09
2022-11-29T12:09:41.343Z,99039.63
2022-11-29T12:12:16.121Z,99128.63
2022-11-29T12:15:03.439Z,99065.28
2022-11-29T12:17:44.419Z,99042.56
2022-11-29T12:21:00.471Z,99096.34
2022-11-29T12:23:53.142Z,99106.66
2022-11-29T12:26:56.600Z,99133.22
2022-11-29T12:29:22.497Z,99128.66
2022-11-29T12:32:19.594Z,99113.63
2022-11-29T12:35:02.171Z,99078.84
2022-11-29T12:38:17.141Z,99132.31
2022-11-29T12:41:19.172Z,99092.34
2022-11-29T12:44:18.399Z,99101.94
2022-11-29T12:47:13.228Z,99029.00
2022-11-29T12:50:21.487Z,99113.59
2022-11-29T12:53:10.968Z,99066.00
2022-11-29T12:56:18.902Z,99185.97
2022-11-29T12:59:22.707Z,99091.63
2022-11-29T13:02:24.724Z,99084.69
2022-11-29T13:05:15.198Z,99099.47
2022-11-29T13:08:15.320Z,99122.84
2022-11-29T13:11:13.201Z,99102.28
2022-11-29T13:13:52.305Z,99164.66
2022-11-29T13:17:06.125Z,99086.84
2022-11-29T13:19:56.003Z,99065.19
2022-11-29T13:22:33.022Z,99148.03
2022-11-29T13:25:24.268Z,99158.22
2022-11-29T13:28:29.328Z,99056.72
2022-11-29T13:31:12.264Z,99130.84
2022-11-29T13:33:52.854Z,99145.03
2022-11-29T13:36:54.620Z,99138.53
2022-11-29T13:39:52.796Z,99165.00
2022-11-29T13:42:55.481Z,99065.38
2022-11-29T13:45:36.615Z,99155.50
2022-11-29T13:48:31.843Z,99088.84
2022-11-29T13:51:19.392Z,99071.16
2022-11-29T13:53:49.142Z,99099.97
2022-11-29T13:56:42.788Z,99134.53
2022-11-29T13:59:22.682Z,99103.75
2022-11-29T14:01:53.988Z,99124.94
2022-11-29T14:04:25.779Z,99120.63
2022-11-29T14:07:05.044Z,99041.25
2022-11-29T14:10:01.287Z,99068.41
2022-11-29T14:12:49.168Z,99034.00
2022-11-29T14:15:32.087Z,99071.38
2022-11-29T14:18:08.573Z,99110.22
2022-11-29T14:20:45.700Z,99104.16
2022-11-29T14:23:12.599Z,99143.88
2022-11-29T14:26:02.921Z,99112.84
2022-11-29T14:28:40.856Z,99138.56
2022-11-29T14:31:11.114Z,99132.75
2022-11-29T14:33:50.365Z,99103.28
2022-11-29T14:36:50.505Z,99068.19
2022-11-29T14:39:48.005Z,99104.06
2022-11-29T14:42:24.748Z,99091.97
2022-11-29T14:45:00.701Z,99101.63
2022-11-29T14:47:39.040Z,99097.03
2022-11-29T14:50:09.851Z,99083.31
2022-11-29T14:52:51.188Z,99086.44
2022-11-29T14:55:18.275Z,99079.94
2022-11-29T14:57:47.956Z,99098.09
2022-11-29T15:00:23.619Z,99140.03
2022-11-29T15:03:13.973Z,99101.19
2022-11-29T15:05:53.862Z,99102.59
2022-11-29T15:08:29.683Z,99144.53
2022-11-29T15:11:10.964Z,99096.88
2022-11-29T15:14:09.431Z,99146.22
2022-11-29T15:16:49.965Z,99105.31
2022-11-29T15:20:06.880Z,99060.13
2022-11-29T15:25:32.208Z,99136.66
2022-11-29T15:28:05.881Z,99151.72
2022-11-29T15:30:41.664Z,99117.06
2022-11-29T15:33:24.198Z,99065.59
2022-11-29T15:36:20.235Z,99076.03
2022-11-29T15:38:55.965Z,99106.63
2022-11-29T15:41:29.954Z,99154.75
2022-11-29T15:44:00.653Z,99088.91
2022-11-29T15:46:30.951Z,99089.59
2022-11-29T15:49:17.964Z,99150.09
2022-11-29T15:51:50.399Z,99127.28
2022-11-29T15:54:42.368Z,99071.75
2022-11-29T15:57:31.615Z,99136.25
2022-11-29T16:00:06.749Z,99159.81
2022-11-29T16:02:46.415Z,99112.56
2022-11-29T16:05:25.243Z,99096.88
2022-11-29T16:07:58.408Z,99093.94
2022-11-29T16:10:40.972Z,99086.84
2022-11-29T16:13:40.607Z,99138.63
2022-11-29T16:16:20.951Z,99174.81
2022-11-29T16:18:50.457Z,99125.56
2022-11-29T16:21:30.702Z,99125.78
2022-11-29T16:23:59.048Z,99186.84
2022-11-29T16:26:34.631Z,99138.72
2022-11-29T16:29:02.000Z,99194.75
2022-11-29T16:31:37.913Z,99068.78
2022-11-29T16:34:33.820Z,99151.00
2022-11-29T16:37:14.377Z,99120.56
2022-11-29T16:39:48.044Z,99164.06
2022-11-29T16:42:26.165Z,99148.84
2022-11-29T16:45:02.477Z,99170.91
2022-11-29T16:47:59.592Z,99198.81
2022-11-29T16:50:31.935Z,99178.34
2022-11-29T16:53:36.970Z,99172.38
2022-11-29T16:56:05.865Z,99135.09
2022-11-29T16:58:38.756Z,99197.88
2022-11-29T17:01:18.146Z,99110.69
2022-11-29T17:03:45.805Z,99216.19
2022-11-29T17:06:21.132Z,99188.06
2022-11-29T17:08:48.762Z,99133.06
2022-11-29T17:11:15.914Z,99175.69
2022-11-29T17:13:43.131Z,99211.09
2022-11-29T17:16:15.891Z,99147.53
2022-11-29T17:18:43.444Z,99187.53
2022-11-29T17:21:26.475Z,99198.66
2022-11-29T17:23:54.294Z,99222.97
2022-11-29T17:26:22.491Z,99177.56
2022-11-29T17:28:51.549Z,99190.28
2022-11-29T17:31:22.485Z,99226.69
2022-11-29T17:33:50.032Z,99198.66
2022-11-29T17:36:20.799Z,99170.22
2022-11-29T17:38:48.830Z,99202.00
2022-11-29T17:41:23.027Z,99215.88
2022-11-29T17:43:51.577Z,99177.06
2022-11-29T17:46:34.933Z,99197.81
2022-11-29T17:49:06.014Z,99166.44
2022-11-29T17:54:23.006Z,99165.44
2022-11-29T17:56:50.732Z,99187.53
2022-11-29T17:59:17.888Z,99155.91
2022-11-29T18:01:47.404Z,99175.84
2022-11-29T18:04:14.788Z,99170.91
2022-11-29T18:06:42.125Z,99193.47
2022-11-29T18:09:11.205Z,99155.78
2022-11-29T18:11:48.528Z,99205.03
2022-11-29T18:14:20.559Z,99171.50
2022-11-29T18:16:47.924Z,99104.44
2022-11-29T18:19:18.449Z,99224.53
2022-11-29T18:21:45.792Z,99203.47
2022-11-29T18:24:13.078Z,99174.59
2022-11-29T18:26:40.821Z,99133.50
2022-11-29T18:29:08.938Z,99224.97
2022-11-29T18:31:39.790Z,99230.88
2022-11-29T18:34:11.599Z,99190.59
2022-11-29T18:36:45.124Z,99211.19
2022-11-29T18:39:18.998Z,99221.88
2022-11-29T18:41:49.096Z,99182.63
2022-11-29T18:44:19.595Z,99189.34
2022-11-29T18:46:48.088Z,99196.00
2022-11-29T18:49:17.456Z,99241.84
2022-11-29T18:51:46.436Z,99195.06
2022-11-29T18:54:15.553Z,99235.53
2022-11-29T18:56:43.946Z,99137.78
2022-11-29T18:59:16.403Z,99217.91
2022-11-29T19:01:45.317Z,99206.91
2022-11-29T19:04:19.629Z,99219.63
2022-11-29T19:06:47.100Z,99206.13
2022-11-29T19:09:21.201Z,99237.28
2022-11-29T19:11:49.765Z,99243.41
2022-11-29T19:14:17.260Z,99255.53
2022-11-29T19:16:47.802Z,99178.44
2022-11-29T19:19:15.018Z,99245.34
2022-11-29T19:21:42.488Z,99157.19
2022-11-29T19:24:14.863Z,99199.94
2022-11-29T19:26:45.064Z,99230.88
2022-11-29T19:29:13.734Z,99197.22
2022-11-29T19:31:40.989Z,99229.81
2022-11-29T19:34:08.104Z,99244.34
2022-11-29T19:36:37.266Z,99267.19
2022-11-29T19:39:04.929Z,99249.13
2022-11-29T19:41:34.398Z,99260.31
2022-11-29T19:44:08.582Z,99243.63
2022-11-29T19:46:44.165Z,99186.25
2022-11-29T19:49:32.642Z,99231.47
2022-11-29T19:51:59.576Z,99254.31
2022-11-29T19:54:26.718Z,99248.97
2022-11-29T19:56:55.665Z,99241.44
2022-11-29T19:59:22.888Z,99164.56
2022-11-29T20:01:50.010Z,99239.88
2022-11-29T20:04:17.582Z,99222.44
2022-11-29T20:06:45.645Z,99244.16
2022-11-29T20:09:13.875Z,99229.75
2022-11-29T20:11:40.945Z,99226.84
2022-11-29T20:14:10.213Z,99217.31
2022-11-29T20:16:40.330Z,99255.91
2022-11-29T20:19:14.609Z,99232.66
2022-11-29T20:21:45.987Z,99227.00
2022-11-29T20:24:14.525Z,99205.56
2022-11-29T20:26:45.743Z,99245.56
2022-11-29T20:29:13.946Z,99246.94
2022-11-29T20:31:49.082Z,99222.50
2022-11-29T20:34:17.270Z,99227.84
2022-11-29T20:37:15.031Z,99270.53
2022-11-29T20:40:01.764Z,99218.06
2022-11-29T20:42:28.799Z,99262.94
2022-11-29T20:45:01.948Z,99233.91
2022-11-29T20:47:47.285Z,99262.38
2022-11-29T20:50:27.251Z,99259.88
2022-11-29T20:53:36.211Z,99271.38
2022-11-29T20:56:05.364Z,99290.47
2022-11-29T20:58:34.229Z,99245.81
2022-11-29T21:01:01.948Z,99249.25
2022-11-29T21:03:29.717Z,99182.69
2022-11-29T21:06:01.025Z,99247.91
2022-11-29T21:08:28.218Z,99201.94
2022-11-29T21:11:00.725Z,99240.97
2022-11-29T21:13:28.124Z,99233.47
2022-11-29T21:15:55.755Z,99298.78
2022-11-29T21:18:28.281Z,99267.31
2022-11-29T21:21:16.360Z,99269.63
2022-11-29T21:24:14.164Z,99296.47
2022-11-29T21:26:50.853Z,99208.06
2022-11-29T21:29:23.043Z,99230.88
2022-11-29T21:31:54.255Z,99275.91
2022-11-29T21:34:22.152Z,99249.56
2022-11-29T21:36:58.512Z,99276.16
2022-11-29T21:39:35.118Z,99239.44
2022-11-29T21:42:02.890Z,99250.75
2022-11-29T21:44:30.062Z,99240.94
2022-11-29T21:46:57.056Z,99199.31
2022-11-29T21:49:24.083Z,99254.09
2022-11-29T21:51:51.057Z,99275.75
2022-11-29T21:54:20.656Z,99243.28
2022-11-29T21:56:47.731Z,99232.31
2022-11-29T21:59:14.640Z,99215.16
2022-11-29T22:01:41.667Z,99276.28
2022-11-29T22:04:09.138Z,99214.38
2022-11-29T22:06:37.004Z,99254.41
2022-11-29T22:09:05.022Z,99250.59
2022-11-29T22:11:33.931Z,99230.13
2022-11-29T22:14:17.044Z,99242.09
2022-11-29T22:16:57.473Z,99230.78
2022-11-29T22:19:25.221Z,99271.00
2022-11-29T22:21:55.658Z,99234.63
2022-11-29T22:24:26.253Z,99234.69
2022-11-29T22:26:54.609Z,99200.31
2022-11-29T22:29:23.451Z,99252.69
2022-11-29T22:31:53.184Z,99226.34
2022-11-29T22:34:21.071Z,99296.06
2022-11-29T22:36:48.013Z,99265.25
2022-11-29T22:39:15.341Z,99242.56
2022-11-29T22:41:42.677Z,99224.44
2022-11-29T22:44:09.649Z,99258.06
2022-11-29T22:46:41.114Z,99251.09
2022-11-29T22:49:08.166Z,99222.69
2022-11-29T22:51:37.883Z,99268.25
2022-11-29T22:54:08.914Z,99214.59
2022-11-29T22:56:40.209Z,99288.25
2022-11-29T22:59:08.301Z,99314.97
2022-11-29T23:01:38.175Z,99266.59
2022-11-29T23:04:08.232Z,99237.16
2022-11-29T23:06:44.202Z,99272.97
2022-11-29T23:09:22.482Z,99263.34
2022-11-29T23:11:54.387Z,99260.84
2022-11-29T23:14:22.490Z,99296.22
2022-11-29T23:16:49.702Z,99239.28
2022-11-29T23:19:17.342Z,99264.03
2022-11-29T23:21:45.554Z,99268.88
2022-11-29T23:24:14.336Z,99269.31
2022-11-29T23:26:45.656Z,99247.75
2022-11-29T23:29:16.608Z,99245.03
2022-11-29T23:31:44.257Z,99285.03
2022-11-29T23:34:11.705Z,99253.88
2022-11-29T23:36:38.797Z,99303.91
2022-11-29T23:39:06.919Z,99296.03
2022-11-29T23:41:36.282Z,99326.38
2022-11-29T23:44:05.161Z,99313.47
2022-11-29T23:46:32.776Z,99306.28
2022-11-29T23:48:59.890Z,99242.97
2022-11-29T23:51:27.228Z,99283.22
2022-11-29T23:53:55.147Z,99291.34
2022-11-29T23:56:23.049Z,99199.94
2022-11-29T23:58:50.365Z,99286.31
